createdAt,value
2023-03-05T00:00:07.840Z,1.29
2023-03-05T00:01:07.897Z,1.31
2023-03-05T00:02:07.879Z,1.25
2023-03-05T00:03:07.853Z,1.20
2023-03-05T03:02:08.524Z,1.05
2023-03-05T03:14:07.828Z,1.16
2023-03-05T03:16:07.863Z,1.14
2023-03-05T03:17:08.095Z,1.05
2023-03-05T03:18:07.860Z,1.08
2023-03-05T03:19:07.853Z,1.17
2023-03-05T03:20:07.886Z,1.19
2023-03-05T03:21:07.892Z,1.08
2023-03-05T03:22:07.864Z,1.06
2023-03-05T03:23:07.884Z,1.06
2023-03-05T03:24:07.899Z,1.04
2023-03-05T03:25:07.903Z,1.03
2023-03-05T03:26:07.917Z,1.01
2023-03-05T03:27:07.925Z,1.04
2023-03-05T03:28:07.912Z,1.03
2023-03-05T03:29:07.925Z,1.18
2023-03-05T03:30:07.934Z,1.22
2023-03-05T03:31:08.077Z,1.16
2023-03-05T03:32:08.036Z,1.18
2023-03-05T03:33:07.943Z,1.12
2023-03-05T03:34:07.969Z,1.10
2023-03-05T03:35:07.962Z,1.17
2023-03-05T03:36:07.985Z,1.11
2023-03-05T03:37:07.986Z,1.15
2023-03-05T03:38:08.014Z,1.11
2023-03-05T03:39:08.009Z,1.08
2023-03-05T03:40:08.024Z,1.11
2023-03-05T03:41:08.039Z,1.12
2023-03-05T03:42:08.032Z,1.12
2023-03-05T03:43:08.042Z,1.23
2023-03-05T03:44:08.092Z,1.19
2023-03-05T03:45:08.088Z,1.14
2023-03-05T03:46:08.185Z,1.08
2023-03-05T03:47:08.088Z,1.03
2023-03-05T03:48:08.086Z,1.03
2023-03-05T03:49:08.104Z,1.10
2023-03-05T03:50:08.123Z,1.08
2023-03-05T03:51:08.135Z,1.16
2023-03-05T03:52:08.137Z,1.14
2023-03-05T03:53:08.198Z,1.06
2023-03-05T03:54:08.150Z,1.10
2023-03-05T03:55:08.134Z,1.12
2023-03-05T03:56:08.157Z,1.10
2023-03-05T03:57:08.134Z,1.14
2023-03-05T03:58:08.173Z,1.06
2023-03-05T03:59:08.176Z,1.14
2023-03-05T04:00:08.192Z,1.16
2023-03-05T04:01:08.183Z,1.21
2023-03-05T04:02:08.286Z,1.26
2023-03-05T04:03:08.281Z,1.13
2023-03-05T04:04:08.407Z,1.07
2023-03-05T04:05:08.425Z,1.08
2023-03-05T04:06:08.523Z,1.08
2023-03-05T04:07:08.557Z,1.05
2023-03-05T04:08:08.631Z,1.04
2023-03-05T04:09:08.671Z,1.12
2023-03-05T04:10:08.713Z,1.13
2023-03-05T04:11:08.713Z,1.09
2023-03-05T04:12:08.786Z,1.16
2023-03-05T04:13:08.806Z,1.10
2023-03-05T04:14:08.819Z,1.03
2023-03-05T04:15:08.800Z,1.05
2023-03-05T04:16:08.838Z,1.04
2023-03-05T04:17:08.846Z,1.02
2023-03-05T04:18:08.841Z,1.13
2023-03-05T04:19:08.827Z,1.15
2023-03-05T04:20:08.843Z,1.10
2023-03-05T04:21:08.857Z,1.16
2023-03-05T04:22:08.849Z,1.14
2023-03-05T04:23:08.881Z,1.16
2023-03-05T04:24:08.875Z,1.09
2023-03-05T04:25:08.879Z,1.12
2023-03-05T04:26:08.881Z,1.15
2023-03-05T04:27:08.903Z,1.14
2023-03-05T04:28:08.901Z,1.07
2023-03-05T04:29:08.881Z,1.14
2023-03-05T04:30:08.906Z,1.17
2023-03-05T04:31:08.939Z,1.18
2023-03-05T04:32:08.991Z,1.22
2023-03-05T04:33:08.937Z,1.14
2023-03-05T04:34:08.902Z,1.13
2023-03-05T04:35:08.936Z,1.19
2023-03-05T04:36:08.942Z,1.13
2023-03-05T04:37:08.955Z,1.14
2023-03-05T04:38:08.946Z,1.17
2023-03-05T04:39:08.937Z,1.16
2023-03-05T04:40:08.977Z,1.13
2023-03-05T04:41:08.977Z,1.15
2023-03-05T04:42:08.988Z,1.06
2023-03-05T04:43:08.984Z,1.12
2023-03-05T04:44:08.994Z,1.11
2023-03-05T04:45:08.993Z,1.12
2023-03-05T04:46:09.061Z,1.13
2023-03-05T04:47:09.015Z,1.27
2023-03-05T04:48:08.985Z,1.14
2023-03-05T04:49:08.986Z,1.14
2023-03-05T04:50:09.001Z,1.12
2023-03-05T04:51:09.008Z,1.14
2023-03-05T04:52:09.047Z,1.15
2023-03-05T04:53:09.025Z,1.19
2023-03-05T04:54:09.032Z,1.20
2023-03-05T04:55:09.020Z,1.12
2023-03-05T04:56:09.039Z,1.13
2023-03-05T04:57:09.066Z,1.12
2023-03-05T04:58:09.065Z,1.16
2023-03-05T04:59:09.054Z,1.13
2023-03-05T05:00:09.057Z,1.14
2023-03-05T05:01:09.103Z,1.22
2023-03-05T05:02:09.114Z,1.19
2023-03-05T05:03:09.154Z,1.20
2023-03-05T05:04:09.084Z,1.24
2023-03-05T05:05:09.102Z,1.24
2023-03-05T05:06:09.092Z,1.14
2023-03-05T05:07:09.095Z,1.17
2023-03-05T05:08:09.143Z,1.23
2023-03-05T05:09:09.115Z,1.35
2023-03-05T05:10:09.148Z,1.15
2023-03-05T05:11:09.143Z,1.09
2023-03-05T05:12:09.142Z,1.21
2023-03-05T05:13:09.166Z,1.28
2023-03-05T05:14:09.159Z,1.25
2023-03-05T05:15:09.186Z,1.28
2023-03-05T05:16:09.219Z,1.33
2023-03-05T05:17:09.179Z,1.26
2023-03-05T05:18:09.216Z,1.16
2023-03-05T05:19:09.239Z,1.26
2023-03-05T05:20:09.237Z,1.26
2023-03-05T05:21:09.249Z,1.16
2023-03-05T05:22:09.211Z,1.13
2023-03-05T05:23:09.224Z,1.18
2023-03-05T05:24:09.250Z,1.19
2023-03-05T05:25:09.272Z,1.13
2023-03-05T05:26:09.283Z,1.13
2023-03-05T05:27:09.277Z,1.24
2023-03-05T05:28:09.287Z,1.19
2023-03-05T05:29:09.261Z,1.22
2023-03-05T05:30:09.286Z,1.15
2023-03-05T05:31:09.360Z,1.09
2023-03-05T05:32:09.398Z,1.13
2023-03-05T05:33:09.317Z,1.24
2023-03-05T05:34:09.330Z,1.21
2023-03-05T05:35:09.313Z,1.26
2023-03-05T05:36:09.350Z,1.23
2023-03-05T05:37:09.326Z,1.27
2023-03-05T05:38:09.340Z,1.31
2023-03-05T05:39:09.336Z,1.29
2023-03-05T05:40:09.345Z,1.25
2023-03-05T05:41:09.353Z,1.27
2023-03-05T05:42:09.331Z,1.25
2023-03-05T05:43:09.371Z,1.30
2023-03-05T05:44:09.383Z,1.39
2023-03-05T05:45:09.421Z,1.37
2023-03-05T05:46:09.522Z,1.42
2023-03-05T05:47:09.364Z,1.43
2023-03-05T05:48:09.393Z,1.41
2023-03-05T05:49:09.372Z,1.38
2023-03-05T05:50:09.379Z,1.32
2023-03-05T05:51:09.389Z,1.34
2023-03-05T05:52:09.389Z,1.39
2023-03-05T05:53:09.390Z,1.32
2023-03-05T05:54:09.379Z,1.36
2023-03-05T05:55:09.419Z,1.41
2023-03-05T05:56:09.407Z,1.38
2023-03-05T05:57:09.436Z,1.34
2023-03-05T05:58:09.401Z,1.41
2023-03-05T05:59:09.422Z,1.44
2023-03-05T06:00:09.442Z,1.44
2023-03-05T06:01:09.445Z,1.42
2023-03-05T06:02:09.542Z,1.42
2023-03-05T06:03:09.640Z,1.41
2023-03-05T06:04:09.596Z,1.38
2023-03-05T06:05:09.673Z,1.45
2023-03-05T06:06:09.706Z,1.44
2023-03-05T06:07:09.700Z,1.38
2023-03-05T06:08:09.711Z,1.43
2023-03-05T06:09:09.736Z,1.44
2023-03-05T06:10:09.698Z,1.47
2023-03-05T06:11:09.737Z,1.44
2023-03-05T06:12:09.748Z,1.51
2023-03-05T06:13:09.712Z,1.41
2023-03-05T06:14:09.747Z,1.41
2023-03-05T06:15:09.771Z,1.42
2023-03-05T06:16:09.751Z,1.49
2023-03-05T06:17:11.306Z,1.49
2023-03-05T06:18:09.756Z,1.45
2023-03-05T06:19:09.722Z,1.42
2023-03-05T06:20:09.725Z,1.47
2023-03-05T06:21:09.758Z,1.51
2023-03-05T06:22:09.728Z,1.48
2023-03-05T06:23:09.714Z,1.49
2023-03-05T06:24:09.714Z,1.47
2023-03-05T06:25:09.723Z,1.53
2023-03-05T06:26:09.701Z,1.53
2023-03-05T06:27:09.671Z,1.46
2023-03-05T06:28:09.710Z,1.47
2023-03-05T06:29:09.666Z,1.48
2023-03-05T06:30:09.722Z,1.49
2023-03-05T06:31:09.714Z,1.45
2023-03-05T06:32:09.710Z,1.52
2023-03-05T06:33:09.635Z,1.48
2023-03-05T06:34:09.634Z,1.52
2023-03-05T06:35:09.676Z,1.55
2023-03-05T06:36:09.662Z,1.55
2023-03-05T06:37:09.616Z,1.53
2023-03-05T06:38:09.632Z,1.52
2023-03-05T06:39:09.602Z,1.49
2023-03-05T06:40:09.625Z,1.54
2023-03-05T06:41:09.657Z,1.51
2023-03-05T06:42:09.650Z,1.47
2023-03-05T06:43:09.602Z,1.51
2023-03-05T06:44:09.588Z,1.53
2023-03-05T06:45:09.597Z,1.50
2023-03-05T06:46:09.657Z,1.54
2023-03-05T06:47:09.569Z,1.53
2023-03-05T06:48:09.568Z,1.56
2023-03-05T06:49:09.658Z,1.54
2023-03-05T06:50:09.543Z,1.53
2023-03-05T06:51:09.561Z,1.57
2023-03-05T06:52:09.537Z,1.55
2023-03-05T06:53:09.572Z,1.56
2023-03-05T06:54:09.536Z,1.52
2023-03-05T06:55:09.503Z,1.50
2023-03-05T06:56:09.481Z,1.47
2023-03-05T06:57:09.488Z,1.49
2023-03-05T06:58:09.468Z,1.49
2023-03-05T06:59:09.477Z,1.46
2023-03-05T07:00:09.503Z,1.46
2023-03-05T07:01:09.520Z,1.45
2023-03-05T07:02:09.488Z,1.46
2023-03-05T07:03:09.470Z,1.42
2023-03-05T07:04:09.431Z,1.43
2023-03-05T07:05:09.465Z,1.49
2023-03-05T07:06:09.482Z,1.44
2023-03-05T07:07:09.436Z,1.45
2023-03-05T07:08:09.428Z,1.48
2023-03-05T07:09:09.429Z,1.43
2023-03-05T07:10:09.432Z,1.43
2023-03-05T07:11:09.406Z,1.37
2023-03-05T07:12:09.402Z,1.37
2023-03-05T07:13:09.402Z,1.40
2023-03-05T07:14:09.420Z,1.33
2023-03-05T07:15:09.367Z,1.39
2023-03-05T07:16:09.449Z,1.43
2023-03-05T07:17:09.356Z,1.39
2023-03-05T07:18:09.372Z,1.36
2023-03-05T07:19:09.338Z,1.37
2023-03-05T07:20:09.340Z,1.39
2023-03-05T07:21:09.325Z,1.37
2023-03-05T07:22:09.337Z,1.34
2023-03-05T07:23:09.326Z,1.34
2023-03-05T07:24:09.309Z,1.36
2023-03-05T07:25:09.312Z,1.34
2023-03-05T07:26:09.308Z,1.28
2023-03-05T07:27:09.282Z,1.31
2023-03-05T07:28:09.284Z,1.27
2023-03-05T07:29:09.267Z,1.24
2023-03-05T07:30:09.274Z,1.24
2023-03-05T07:31:09.410Z,1.28
2023-03-05T07:32:09.296Z,1.29
2023-03-05T07:33:09.265Z,1.23
2023-03-05T07:34:09.230Z,1.23
2023-03-05T07:35:09.241Z,1.26
2023-03-05T07:36:09.233Z,1.31
2023-03-05T07:37:09.239Z,1.28
2023-03-05T07:38:09.212Z,1.27
2023-03-05T07:39:09.198Z,1.29
2023-03-05T07:40:09.213Z,1.33
2023-03-05T07:41:09.216Z,1.38
2023-03-05T07:42:09.260Z,1.29
2023-03-05T07:43:09.185Z,1.24
2023-03-05T07:44:09.216Z,1.25
2023-03-05T07:45:09.178Z,1.32
2023-03-05T07:46:09.260Z,1.24
2023-03-05T07:47:09.197Z,1.23
2023-03-05T07:48:09.273Z,1.25
2023-03-05T07:49:09.348Z,1.34
2023-03-05T07:50:09.376Z,1.30
2023-03-05T07:51:09.410Z,1.33
2023-03-05T07:52:09.420Z,1.37
2023-03-05T07:53:09.467Z,1.29
2023-03-05T07:54:09.590Z,1.22
2023-03-05T07:55:09.530Z,1.24
2023-03-05T07:56:09.549Z,1.27
2023-03-05T07:57:09.587Z,1.28
2023-03-05T07:58:09.627Z,1.31
2023-03-05T07:59:09.639Z,1.30
2023-03-05T08:00:09.625Z,1.29
2023-03-05T08:01:10.842Z,1.33
2023-03-05T08:02:09.687Z,1.40
2023-03-05T08:03:09.693Z,1.44
2023-03-05T08:04:09.763Z,1.47
2023-03-05T08:05:09.696Z,1.48
2023-03-05T08:06:09.731Z,1.43
2023-03-05T08:07:09.720Z,1.44
2023-03-05T08:08:09.741Z,1.44
2023-03-05T08:09:09.751Z,1.45
2023-03-05T08:10:09.747Z,1.52
2023-03-05T08:11:09.762Z,1.47
2023-03-05T08:12:09.756Z,1.47
2023-03-05T08:13:09.754Z,1.48
2023-03-05T08:14:09.756Z,1.47
2023-03-05T08:15:09.757Z,1.48
2023-03-05T08:16:09.847Z,1.43
2023-03-05T08:17:09.797Z,1.43
2023-03-05T08:18:09.784Z,1.46
2023-03-05T08:19:09.741Z,1.44
2023-03-05T08:20:09.737Z,1.46
2023-03-05T08:21:10.671Z,1.49
2023-03-05T08:22:09.765Z,1.43
2023-03-05T08:23:09.727Z,1.42
2023-03-05T08:24:09.778Z,1.46
2023-03-05T08:25:09.763Z,1.34
2023-03-05T08:26:09.786Z,1.40
2023-03-05T08:27:09.764Z,1.46
2023-03-05T08:28:09.774Z,1.45
2023-03-05T08:29:09.791Z,1.42
2023-03-05T08:30:09.772Z,1.38
2023-03-05T08:31:09.776Z,1.45
2023-03-05T08:32:09.803Z,1.36
2023-03-05T08:33:09.813Z,1.40
2023-03-05T08:34:09.800Z,1.40
2023-03-05T08:35:09.773Z,1.44
2023-03-05T08:36:09.870Z,1.43
2023-03-05T08:37:09.866Z,1.38
2023-03-05T08:38:09.876Z,1.46
2023-03-05T08:39:09.879Z,1.48
2023-03-05T08:40:09.932Z,1.44
2023-03-05T08:41:09.921Z,1.45
2023-03-05T08:42:09.938Z,1.48
2023-03-05T08:43:09.973Z,1.43
2023-03-05T08:44:10.006Z,1.43
2023-03-05T08:45:10.016Z,1.45
2023-03-05T08:46:10.158Z,1.44
2023-03-05T08:47:10.055Z,1.41
2023-03-05T08:48:10.108Z,1.43
2023-03-05T08:49:10.096Z,1.46
2023-03-05T08:50:10.170Z,1.44
2023-03-05T08:51:10.152Z,1.40
2023-03-05T08:52:10.220Z,1.44
2023-03-05T08:53:10.277Z,1.47
2023-03-05T08:54:10.321Z,1.44
2023-03-05T08:55:10.341Z,1.42
2023-03-05T08:56:10.416Z,1.41
2023-03-05T08:57:10.448Z,1.44
2023-03-05T08:58:10.519Z,1.41
2023-03-05T08:59:12.672Z,1.46
2023-03-05T09:00:10.526Z,1.43
2023-03-05T09:01:10.519Z,1.37
2023-03-05T09:02:10.616Z,1.35
2023-03-05T09:03:10.552Z,1.43
2023-03-05T09:04:10.504Z,1.44
2023-03-05T09:05:10.462Z,1.43
2023-03-05T09:06:10.473Z,1.41
2023-03-05T09:07:10.475Z,1.39
2023-03-05T09:08:10.442Z,1.41
2023-03-05T09:09:10.435Z,1.40
2023-03-05T09:10:10.449Z,1.41
2023-03-05T09:11:10.485Z,1.41
2023-03-05T09:12:12.206Z,1.46
2023-03-05T09:13:10.432Z,1.40
2023-03-05T09:14:11.177Z,1.41
2023-03-05T09:15:10.434Z,1.45
2023-03-05T09:16:10.414Z,1.40
2023-03-05T09:17:10.400Z,1.40
2023-03-05T09:18:10.398Z,1.40
2023-03-05T09:19:10.391Z,1.40
2023-03-05T09:20:10.356Z,1.45
2023-03-05T09:21:10.366Z,1.45
2023-03-05T09:22:10.461Z,1.44
2023-03-05T09:23:10.522Z,1.45
2023-03-05T09:24:10.559Z,1.41
2023-03-05T09:25:10.634Z,1.40
2023-03-05T09:26:10.692Z,1.40
2023-03-05T09:27:10.761Z,1.40
2023-03-05T09:28:10.799Z,1.38
2023-03-05T09:29:10.856Z,1.40
2023-03-05T09:30:10.914Z,1.40
2023-03-05T09:31:10.953Z,1.41
2023-03-05T09:32:11.050Z,1.37
2023-03-05T09:33:11.060Z,1.34
2023-03-05T09:34:11.123Z,1.30
2023-03-05T10:03:12.829Z,1.23
2023-03-05T10:04:12.912Z,1.24
2023-03-05T10:05:12.833Z,1.23
2023-03-05T10:06:12.874Z,1.22
2023-03-05T10:07:12.922Z,1.23
2023-03-05T10:08:13.010Z,1.12
2023-03-05T10:09:13.064Z,1.18
2023-03-05T10:10:13.117Z,1.20
2023-03-05T10:11:13.166Z,1.18
2023-03-05T10:12:13.213Z,1.21
2023-03-05T10:13:13.250Z,1.20
2023-03-05T10:14:13.343Z,1.12
2023-03-05T10:15:13.377Z,1.10
2023-03-05T10:16:13.496Z,1.14
2023-03-05T10:17:13.458Z,1.16
2023-03-05T10:18:13.517Z,1.13
2023-03-05T10:19:13.652Z,1.17
2023-03-05T10:20:13.637Z,1.08
2023-03-05T10:21:13.706Z,1.11
2023-03-05T10:22:13.751Z,1.06
2023-03-05T10:23:13.810Z,1.01
2023-03-05T10:24:13.828Z,1.02
2023-03-05T10:25:13.872Z,0.97
2023-03-05T10:26:13.962Z,1.03
2023-03-05T10:27:14.043Z,1.05
2023-03-05T10:28:14.068Z,1.05
2023-03-05T10:29:14.099Z,0.98
2023-03-05T10:30:14.191Z,1.03
2023-03-05T10:31:14.221Z,1.02
2023-03-05T10:32:14.369Z,1.05
2023-03-05T10:33:14.357Z,1.06
2023-03-05T10:34:14.421Z,1.09
2023-03-05T10:35:14.474Z,1.08
2023-03-05T10:36:14.530Z,1.05
2023-03-05T10:37:14.615Z,1.09
2023-03-05T10:38:14.667Z,1.08
2023-03-05T10:39:14.744Z,1.01
2023-03-05T10:40:14.741Z,1.06
2023-03-05T10:41:14.832Z,1.02
2023-03-05T10:42:14.868Z,1.03
2023-03-05T10:43:14.991Z,1.00
2023-03-05T10:44:15.010Z,0.95
2023-03-05T10:45:15.084Z,0.91
2023-03-05T10:46:15.189Z,0.92
2023-03-05T10:47:15.180Z,0.92
2023-03-05T10:48:15.256Z,0.95
2023-03-05T10:49:15.305Z,0.92
2023-03-05T10:50:15.389Z,0.84
2023-03-05T10:51:15.422Z,0.82
2023-03-05T10:52:17.556Z,0.86
2023-03-05T10:53:15.499Z,0.88
2023-03-05T10:54:15.489Z,0.87
2023-03-05T10:55:15.508Z,0.87
2023-03-05T10:56:15.471Z,0.83
2023-03-05T10:57:15.452Z,0.80
2023-03-05T10:58:15.460Z,0.81
2023-03-05T10:59:15.462Z,0.82
2023-03-05T11:00:15.442Z,0.86
2023-03-05T11:01:15.503Z,0.86
2023-03-05T11:02:15.461Z,0.84
2023-03-05T11:03:15.426Z,0.78
2023-03-05T11:04:15.419Z,0.74
2023-03-05T11:05:15.386Z,0.74
2023-03-05T11:06:15.419Z,0.74
2023-03-05T11:17:15.315Z,0.72
2023-03-05T11:18:15.299Z,0.68
2023-03-05T11:19:15.326Z,0.71
2023-03-05T11:20:15.298Z,0.73
2023-03-05T11:21:15.277Z,0.69
2023-03-05T11:22:15.283Z,0.65
2023-03-05T11:23:15.279Z,0.69
2023-03-05T11:24:15.262Z,0.66
2023-03-05T11:25:15.249Z,0.64
2023-03-05T11:26:15.263Z,0.67
2023-03-05T11:27:15.263Z,0.67
2023-03-05T11:28:19.026Z,0.68
2023-03-05T11:29:16.241Z,0.68
2023-03-05T11:30:15.222Z,0.65
2023-03-05T11:31:15.240Z,0.64
2023-03-05T11:32:15.206Z,0.62
2023-03-05T11:33:15.191Z,0.64
2023-03-05T11:34:15.194Z,0.63
2023-03-05T11:35:15.211Z,0.65
2023-03-05T11:36:15.218Z,0.69
2023-03-05T11:37:15.187Z,0.66
2023-03-05T11:38:15.223Z,0.60
2023-03-05T11:39:15.281Z,0.61
2023-03-05T11:40:15.358Z,0.67
2023-03-05T11:41:15.416Z,0.64
2023-03-05T11:42:15.505Z,0.61
2023-03-05T11:43:15.549Z,0.57
2023-03-05T11:44:15.576Z,0.62
2023-03-05T11:45:15.640Z,0.58
2023-03-05T11:46:15.754Z,0.57
2023-03-05T11:47:15.761Z,0.59
2023-03-05T11:48:15.806Z,0.55
2023-03-05T11:49:15.916Z,0.52
2023-03-05T11:50:16.027Z,0.51
2023-03-05T11:51:15.992Z,0.52
2023-03-05T11:52:16.031Z,0.52
2023-03-05T11:53:16.102Z,0.53
2023-03-05T11:54:16.140Z,0.53
2023-03-05T11:55:16.228Z,0.50
2023-03-05T11:56:18.100Z,0.51
2023-03-05T11:57:16.280Z,0.54
2023-03-05T11:58:16.248Z,0.52
2023-03-05T11:59:16.284Z,0.52
2023-03-05T12:00:16.802Z,0.53
2023-03-05T12:01:16.231Z,0.52
2023-03-05T12:02:18.995Z,0.54
2023-03-05T12:03:16.246Z,0.54
2023-03-05T12:04:16.248Z,0.54
2023-03-05T12:05:16.199Z,0.54
2023-03-05T12:06:16.246Z,0.58
2023-03-05T12:27:16.068Z,0.60
2023-03-05T12:28:16.081Z,0.56
2023-03-05T12:29:16.063Z,0.55
2023-03-05T12:30:16.091Z,0.53
2023-03-05T12:31:16.080Z,0.55
2023-03-05T12:32:16.066Z,0.53
2023-03-05T12:33:16.056Z,0.55
2023-03-05T12:34:16.028Z,0.54
2023-03-05T12:35:16.031Z,0.53
2023-03-05T12:36:16.037Z,0.51
2023-03-05T12:37:16.049Z,0.52
2023-03-05T12:38:26.564Z,0.55
2023-03-05T12:39:17.005Z,0.55
2023-03-05T12:40:16.007Z,0.55
2023-03-05T12:41:16.018Z,0.52
2023-03-05T12:42:15.984Z,0.53
2023-03-05T12:43:15.990Z,0.57
2023-03-05T12:44:15.978Z,0.55
2023-03-05T12:45:16.014Z,0.53
2023-03-05T12:46:15.974Z,0.55
2023-03-05T12:47:15.968Z,0.60
2023-03-05T12:48:15.998Z,0.62
2023-03-05T12:49:15.937Z,0.62
2023-03-05T12:50:15.909Z,0.59
2023-03-05T12:51:15.929Z,0.57
2023-03-05T12:52:15.945Z,0.59
2023-03-05T12:53:15.947Z,0.55
2023-03-05T12:54:17.720Z,0.54
2023-03-05T12:55:16.000Z,0.57
2023-03-05T12:56:15.977Z,0.54
2023-03-05T12:57:15.943Z,0.55
2023-03-05T12:58:15.954Z,0.58
2023-03-05T12:59:15.941Z,0.58
2023-03-05T13:00:15.974Z,0.56
2023-03-05T13:01:16.006Z,0.57
2023-03-05T13:02:16.891Z,0.64
2023-03-05T13:03:15.963Z,0.57
2023-03-05T13:04:15.904Z,0.58
2023-03-05T13:05:15.937Z,0.67
2023-03-05T13:06:15.884Z,0.60
2023-03-05T13:07:15.900Z,0.63
2023-03-05T13:09:16.015Z,0.61
2023-03-05T13:10:15.867Z,0.64
2023-03-05T13:11:15.891Z,0.61
2023-03-05T13:12:15.892Z,0.67
2023-03-05T13:13:15.885Z,0.67
2023-03-05T13:14:15.838Z,0.68
2023-03-05T13:15:15.852Z,0.66
2023-03-05T13:16:15.869Z,0.68
2023-03-05T13:17:15.828Z,0.71
2023-03-05T13:18:15.818Z,0.72
2023-03-05T13:19:15.816Z,0.66
2023-03-05T13:20:15.794Z,0.69
2023-03-05T13:21:15.797Z,0.73
2023-03-05T13:22:15.763Z,0.71
2023-03-05T13:23:15.799Z,0.66
2023-03-05T13:24:15.787Z,0.69
2023-03-05T13:25:15.794Z,0.69
2023-03-05T13:26:15.754Z,0.63
2023-03-05T13:27:15.769Z,0.68
2023-03-05T13:28:15.781Z,0.67
2023-03-05T13:29:15.740Z,0.61
2023-03-05T13:30:15.742Z,0.63
2023-03-05T13:31:15.756Z,0.67
2023-03-05T13:32:15.761Z,0.67
2023-03-05T13:33:15.692Z,0.69
2023-03-05T13:34:15.701Z,0.64
2023-03-05T13:35:15.678Z,0.62
2023-03-05T13:36:15.689Z,0.72
2023-03-05T13:37:15.662Z,0.64
2023-03-05T13:38:15.911Z,0.63
2023-03-05T13:39:15.800Z,0.62
2023-03-05T13:40:15.772Z,0.57
2023-03-05T13:41:15.933Z,0.61
2023-03-05T13:42:15.811Z,0.65
2023-03-05T13:43:15.699Z,0.62
2023-03-05T13:44:15.828Z,0.66
2023-03-05T13:45:15.756Z,0.58
2023-03-05T13:46:15.921Z,0.60
2023-03-05T13:47:15.587Z,0.65
2023-03-05T13:48:15.727Z,0.67
2023-03-05T13:49:15.636Z,0.65
2023-03-05T13:50:15.711Z,0.65
2023-03-05T13:51:15.786Z,0.72
2023-03-05T13:52:15.863Z,0.70
2023-03-05T13:53:15.787Z,0.68
2023-03-05T13:54:15.806Z,0.63
2023-03-05T13:55:15.744Z,0.61
2023-03-05T13:56:15.737Z,0.54
2023-03-05T13:57:17.879Z,0.63
2023-03-05T13:58:15.834Z,0.67
2023-03-05T13:59:15.693Z,0.68
2023-03-05T14:00:15.617Z,0.57
2023-03-05T14:01:15.955Z,0.53
2023-03-05T14:02:15.773Z,0.64
2023-03-05T14:03:15.523Z,0.65
2023-03-05T14:04:15.689Z,0.55
2023-03-05T14:05:15.521Z,0.57
2023-03-05T14:06:15.642Z,0.55
2023-03-05T14:07:15.684Z,0.61
2023-03-05T14:08:15.623Z,0.52
2023-03-05T14:09:15.484Z,0.53
2023-03-05T14:10:15.641Z,0.56
2023-03-05T14:11:15.452Z,0.50
2023-03-05T14:12:15.564Z,0.56
2023-03-05T14:13:15.733Z,0.55
2023-03-05T14:14:15.565Z,0.50
2023-03-05T14:15:15.602Z,0.55
2023-03-05T14:16:15.878Z,0.53
2023-03-05T14:17:15.776Z,0.51
2023-03-05T14:18:15.778Z,0.50
2023-03-05T14:19:15.542Z,0.48
2023-03-05T14:20:15.629Z,0.57
2023-03-05T14:21:15.411Z,0.70
2023-03-05T14:22:15.381Z,0.66
2023-03-05T14:23:26.206Z,0.61
2023-03-05T14:24:16.387Z,0.58
2023-03-05T14:25:15.391Z,0.54
2023-03-05T14:26:15.369Z,0.60
2023-03-05T14:27:15.379Z,0.73
2023-03-05T14:28:15.373Z,0.89
2023-03-05T14:29:15.350Z,0.87
2023-03-05T14:30:15.357Z,0.81
2023-03-05T14:31:15.386Z,0.75
2023-03-05T14:32:15.374Z,0.60
2023-03-05T14:33:15.331Z,0.61
2023-03-05T14:34:15.315Z,0.61
2023-03-05T14:35:15.289Z,0.72
2023-03-05T14:36:15.269Z,0.64
2023-03-05T14:37:15.328Z,0.58
2023-03-05T14:38:15.288Z,0.77
2023-03-05T14:39:15.293Z,0.77
2023-03-05T14:40:15.257Z,0.63
2023-03-05T14:41:15.258Z,0.56
2023-03-05T14:42:15.257Z,0.65
2023-03-05T14:43:15.267Z,0.84
2023-03-05T14:44:15.251Z,0.77
2023-03-05T14:45:15.228Z,0.58
2023-03-05T14:46:15.252Z,0.67
2023-03-05T14:47:15.193Z,0.69
2023-03-05T14:48:15.246Z,0.55
2023-03-05T14:49:15.264Z,0.55
2023-03-05T14:50:15.270Z,0.58
2023-03-05T14:51:15.394Z,0.50
2023-03-05T14:52:15.331Z,0.53
2023-03-05T14:53:15.383Z,0.59
2023-03-05T14:54:15.418Z,0.68
2023-03-05T14:55:15.424Z,0.63
2023-03-05T14:56:15.459Z,0.61
2023-03-05T14:57:15.490Z,0.56
2023-03-05T14:58:15.567Z,0.58
2023-03-05T14:59:15.528Z,0.56
2023-03-05T15:00:15.561Z,0.58
2023-03-05T15:01:15.685Z,0.63
2023-03-05T15:02:15.639Z,0.61
2023-03-05T15:03:15.642Z,0.64
2023-03-05T15:04:15.676Z,0.66
2023-03-05T15:05:15.682Z,0.66
2023-03-05T15:06:15.682Z,0.59
2023-03-05T15:07:15.729Z,0.61
2023-03-05T15:08:15.843Z,0.64
2023-03-05T15:09:15.799Z,0.52
2023-03-05T15:10:15.873Z,0.55
2023-03-05T15:11:15.897Z,0.53
2023-03-05T15:12:15.943Z,0.50
2023-03-05T15:13:15.984Z,0.55
2023-03-05T15:14:16.007Z,0.56
2023-03-05T15:15:16.133Z,0.53
2023-03-05T15:16:16.135Z,0.54
2023-03-05T15:17:16.112Z,0.56
2023-03-05T15:18:16.179Z,0.59
2023-03-05T15:19:16.212Z,0.56
2023-03-05T15:20:16.258Z,0.58
2023-03-05T15:21:16.283Z,0.58
2023-03-05T15:22:16.358Z,0.55
2023-03-05T15:23:16.408Z,0.54
2023-03-05T15:24:16.438Z,0.63
2023-03-05T15:25:16.482Z,0.61
2023-03-05T15:26:16.530Z,0.58
2023-03-05T15:27:16.576Z,0.60
2023-03-05T15:28:16.617Z,0.58
2023-03-05T15:29:16.669Z,0.62
2023-03-05T15:30:16.704Z,0.55
2023-03-05T15:31:16.777Z,0.55
2023-03-05T15:32:16.848Z,0.53
2023-03-05T15:33:16.862Z,0.52
2023-03-05T15:34:16.866Z,0.56
2023-03-05T15:35:16.938Z,0.60
2023-03-05T15:36:16.984Z,0.60
2023-03-05T15:37:17.025Z,0.59
2023-03-05T15:38:17.054Z,0.60
2023-03-05T15:39:17.131Z,0.57
2023-03-05T15:40:17.192Z,0.57
2023-03-05T15:41:17.214Z,0.58
2023-03-05T15:42:17.312Z,0.58
2023-03-05T15:43:17.377Z,0.58
2023-03-05T15:44:17.420Z,0.56
2023-03-05T15:45:17.455Z,0.54
2023-03-05T15:46:17.568Z,0.58
2023-03-05T15:47:17.610Z,0.61
2023-03-05T15:48:17.640Z,0.59
2023-03-05T15:49:17.688Z,0.59
2023-03-05T15:50:17.742Z,0.58
2023-03-05T15:51:17.832Z,0.58
2023-03-05T15:52:17.866Z,0.64
2023-03-05T15:53:17.976Z,0.61
2023-03-05T15:54:17.968Z,0.56
2023-03-05T15:55:18.029Z,0.62
2023-03-05T15:56:18.108Z,0.59
2023-03-05T15:57:18.142Z,0.58
2023-03-05T15:58:18.288Z,0.56
2023-03-05T15:59:18.252Z,0.55
2023-03-05T16:00:18.346Z,0.54
2023-03-05T16:01:18.411Z,0.58
2023-03-05T16:02:18.457Z,0.58
2023-03-05T16:03:18.577Z,0.58
2023-03-05T16:04:18.630Z,0.61
2023-03-05T16:05:18.667Z,0.71
2023-03-05T16:07:19.326Z,0.74
2023-03-05T16:08:18.857Z,0.74
2023-03-05T16:09:18.893Z,0.72
2023-03-05T16:10:18.934Z,0.68
2023-03-05T16:11:19.023Z,0.68
2023-03-05T16:12:19.075Z,0.69
2023-03-05T16:13:21.578Z,0.72
2023-03-05T16:14:19.327Z,0.65
2023-03-05T16:15:19.404Z,0.69
2023-03-05T16:16:19.509Z,0.68
2023-03-05T16:17:19.524Z,0.73
2023-03-05T16:18:19.588Z,0.70
2023-03-05T16:19:19.660Z,0.68
2023-03-05T16:20:19.720Z,0.68
2023-03-05T16:21:19.791Z,0.66
2023-03-05T16:22:19.844Z,0.70
2023-03-05T16:23:19.905Z,0.72
2023-03-05T16:24:19.960Z,0.74
2023-03-05T16:25:20.000Z,0.79
2023-03-05T16:26:20.053Z,0.74
2023-03-05T16:27:20.096Z,0.74
2023-03-05T16:28:20.152Z,0.75
2023-03-05T16:29:20.195Z,0.68
2023-03-05T16:30:20.320Z,0.73
2023-03-05T16:31:20.320Z,0.73
2023-03-05T16:32:20.360Z,0.76
2023-03-05T16:33:20.357Z,0.72
2023-03-05T16:34:20.419Z,0.78
2023-03-05T16:35:20.498Z,0.84
2023-03-05T16:36:20.465Z,0.81
2023-03-05T16:37:20.533Z,0.80
2023-03-05T16:38:20.611Z,0.80
2023-03-05T16:39:20.628Z,0.73
2023-03-05T16:40:20.696Z,0.76
2023-03-05T16:41:22.530Z,0.79
2023-03-05T16:42:20.788Z,0.72
2023-03-05T16:43:20.795Z,0.76
2023-03-05T16:44:20.823Z,0.78
2023-03-05T16:45:20.833Z,0.82
2023-03-05T16:46:20.866Z,0.84
2023-03-05T16:47:20.882Z,0.82
2023-03-05T16:48:20.887Z,0.82
2023-03-05T16:49:20.913Z,0.82
2023-03-05T16:50:20.933Z,0.81
2023-03-05T16:51:20.986Z,0.77
2023-03-05T16:52:21.141Z,0.81
2023-03-05T16:53:21.070Z,0.77
2023-03-05T16:54:21.113Z,0.77
2023-03-05T16:55:21.124Z,0.81
2023-03-05T16:56:21.186Z,0.87
2023-03-05T16:57:21.139Z,0.91
2023-03-05T16:58:21.229Z,0.93
2023-03-05T16:59:21.192Z,0.90
2023-03-05T17:00:21.270Z,0.87
2023-03-05T17:01:21.429Z,0.80
2023-03-05T17:02:21.331Z,0.77
2023-03-05T17:03:21.363Z,0.78
2023-03-05T17:04:21.436Z,0.86
2023-03-05T17:05:21.409Z,0.85
2023-03-05T17:06:21.481Z,0.83
2023-03-05T17:07:21.461Z,0.87
2023-03-05T17:08:21.500Z,0.88
2023-03-05T17:09:21.495Z,0.86
2023-03-05T17:10:21.535Z,0.82
2023-03-05T17:11:21.542Z,0.79
2023-03-05T17:12:21.584Z,0.80
2023-03-05T17:13:21.628Z,0.84
2023-03-05T17:14:21.652Z,0.83
2023-03-05T17:15:21.725Z,0.85
2023-03-05T17:16:21.805Z,0.90
2023-03-05T17:17:21.756Z,0.90
2023-03-05T17:18:21.830Z,0.90
2023-03-05T17:19:21.871Z,0.91
2023-03-05T17:20:21.900Z,0.89
2023-03-05T17:21:21.964Z,0.97
2023-03-05T17:22:22.002Z,0.93
2023-03-05T17:23:22.064Z,0.92
2023-03-05T17:24:22.709Z,0.94
2023-03-05T17:25:22.112Z,0.97
2023-03-05T17:26:22.161Z,0.94
2023-03-05T17:27:22.222Z,0.96
2023-03-05T17:28:22.308Z,0.92